createdAt,value
2017-02-08T00:00:27.711Z,97.67
2017-02-08T00:01:33.798Z,97.49
2017-02-08T00:02:37.954Z,97.58
2017-02-08T00:03:44.043Z,98.24
2017-02-08T00:04:50.141Z,98.43
2017-02-08T00:05:54.266Z,97.3
2017-02-08T00:07:00.375Z,97.67
2017-02-08T00:08:04.525Z,97.58
2017-02-08T00:09:09.640Z,97.3
2017-02-08T00:10:14.809Z,97.96
2017-02-08T00:11:19.904Z,97.49
2017-02-08T00:12:25.031Z,97.3
2017-02-08T00:13:30.150Z,97.3
2017-02-08T00:14:35.275Z,98.14
2017-02-08T00:15:41.361Z,97.86
2017-02-08T00:16:47.484Z,97.96
2017-02-08T00:17:53.562Z,98.05
2017-02-08T00:18:59.663Z,97.77
2017-02-08T00:20:05.752Z,97.49
2017-02-08T00:21:11.905Z,97.58
2017-02-08T00:22:18.013Z,97.49
2017-02-08T00:23:24.092Z,97.49
2017-02-08T00:24:30.182Z,97.77
2017-02-08T00:25:36.263Z,97.77
2017-02-08T00:26:42.349Z,97.58
2017-02-08T00:27:48.439Z,97.39
2017-02-08T00:28:54.567Z,97.3
2017-02-08T00:29:57.698Z,97.58
2017-02-08T00:31:01.852Z,97.11
2017-02-08T00:32:07.938Z,97.67
2017-02-08T00:33:12.090Z,97.96
2017-02-08T00:34:17.208Z,97.77
2017-02-08T00:35:22.339Z,97.58
2017-02-08T00:36:28.417Z,97.58
2017-02-08T00:37:32.583Z,97.58
2017-02-08T00:38:37.710Z,97.96
2017-02-08T00:39:42.835Z,97.58
2017-02-08T00:40:48.923Z,97.58
2017-02-08T00:41:54.060Z,97.58
2017-02-08T00:43:00.154Z,97.77
2017-02-08T00:44:05.272Z,97.86
2017-02-08T00:45:10.394Z,97.39
2017-02-08T00:46:15.517Z,97.58
2017-02-08T00:47:21.644Z,97.49
2017-02-08T00:48:25.753Z,97.77
2017-02-08T00:49:30.872Z,96.92
2017-02-08T00:50:36.023Z,97.49
2017-02-08T00:51:40.171Z,97.86
2017-02-08T00:52:44.338Z,97.86
2017-02-08T00:53:50.439Z,96.92
2017-02-08T00:54:56.540Z,96.92
2017-02-08T00:55:59.713Z,96.83
2017-02-08T00:57:05.797Z,96.73
2017-02-08T00:58:10.899Z,96.83
2017-02-08T00:59:17.001Z,96.73
2017-02-08T01:00:21.147Z,96.92
2017-02-08T01:01:26.267Z,96.92
2017-02-08T01:02:32.369Z,97.67
2017-02-08T01:03:37.486Z,97.11
2017-02-08T01:04:42.621Z,96.92
2017-02-08T01:05:48.718Z,97.01
2017-02-08T01:06:54.859Z,96.92
2017-02-08T01:07:58.992Z,97.11
2017-02-08T01:09:05.085Z,96.92
2017-02-08T01:10:10.176Z,97.01
2017-02-08T01:11:15.295Z,96.92
2017-02-08T01:12:20.408Z,96.92
2017-02-08T01:13:26.494Z,97.11
2017-02-08T01:14:32.603Z,97.11
2017-02-08T01:15:38.713Z,97.11
2017-02-08T01:16:43.831Z,96.92
2017-02-08T01:17:49.044Z,97.11
2017-02-08T01:18:54.164Z,97.11
2017-02-08T01:20:00.255Z,97.11
2017-02-08T01:21:06.345Z,97.2
2017-02-08T01:22:10.498Z,97.01
2017-02-08T01:24:18.810Z,97.11
2017-02-08T01:25:24.999Z,97.11
2017-02-08T01:26:31.087Z,97.11
2017-02-08T01:27:37.178Z,96.83
2017-02-08T01:28:43.264Z,97.3
2017-02-08T01:29:48.404Z,96.92
2017-02-08T01:30:52.530Z,97.01
2017-02-08T01:31:56.688Z,97.11
2017-02-08T01:33:02.780Z,96.73
2017-02-08T01:34:07.900Z,96.92
2017-02-08T01:35:11.077Z,96.64
2017-02-08T01:36:17.169Z,96.92
2017-02-08T01:37:22.288Z,96.54
2017-02-08T01:38:27.409Z,96.73
2017-02-08T01:39:32.594Z,96.54
2017-02-08T01:40:37.719Z,96.92
2017-02-08T01:41:42.845Z,96.73
2017-02-08T01:42:47.005Z,96.92
2017-02-08T01:43:52.140Z,96.92
2017-02-08T01:44:57.235Z,96.92
2017-02-08T01:46:01.363Z,96.92
2017-02-08T01:47:07.447Z,96.73
2017-02-08T01:48:12.549Z,96.73
2017-02-08T01:49:17.685Z,96.92
2017-02-08T01:50:22.811Z,96.83
2017-02-08T01:51:26.963Z,96.83
2017-02-08T01:52:33.105Z,96.64
2017-02-08T01:53:39.210Z,96.54
2017-02-08T01:54:44.323Z,96.07
2017-02-08T01:55:49.441Z,96.35
2017-02-08T01:56:54.569Z,96.35
2017-02-08T01:58:00.651Z,96.35
2017-02-08T01:59:05.765Z,95.97
2017-02-08T02:00:10.893Z,96.35
2017-02-08T02:01:16.011Z,96.16
2017-02-08T02:02:22.094Z,96.16
2017-02-08T02:03:27.187Z,96.07
2017-02-08T02:04:32.326Z,96.45
2017-02-08T02:05:37.502Z,96.35
2017-02-08T02:06:42.633Z,96.16
2017-02-08T02:07:47.739Z,96.35
2017-02-08T02:08:53.831Z,96.07
2017-02-08T02:09:58.950Z,96.54
2017-02-08T02:11:04.076Z,95.97
2017-02-08T02:12:08.211Z,95.88
2017-02-08T02:13:13.355Z,96.16
2017-02-08T02:14:19.448Z,96.16
2017-02-08T02:15:25.540Z,95.59
2017-02-08T02:16:29.675Z,95.97
2017-02-08T02:17:34.794Z,95.97
2017-02-08T02:18:40.882Z,95.97
2017-02-08T02:19:46.012Z,95.78
2017-02-08T02:20:50.141Z,96.07
2017-02-08T02:21:56.235Z,95.88
2017-02-08T02:23:00.384Z,95.97
2017-02-08T02:24:05.524Z,96.07
2017-02-08T02:25:09.657Z,95.59
2017-02-08T02:26:14.785Z,96.26
2017-02-08T02:27:19.896Z,95.97
2017-02-08T02:28:24.044Z,96.07
2017-02-08T02:29:30.137Z,95.88
2017-02-08T02:30:36.247Z,95.59
2017-02-08T02:31:42.334Z,95.12
2017-02-08T02:32:47.449Z,95.59
2017-02-08T02:33:52.600Z,95.59
2017-02-08T02:34:57.749Z,95.31
2017-02-08T02:36:03.844Z,95.4
2017-02-08T02:37:09.911Z,95.5
2017-02-08T02:38:16.004Z,95.21
2017-02-08T02:39:20.192Z,95.03
2017-02-08T02:40:26.278Z,95.03
2017-02-08T02:41:32.369Z,95.03
2017-02-08T02:42:37.493Z,95.5
2017-02-08T02:43:42.612Z,95.21
2017-02-08T02:44:47.735Z,95.59
2017-02-08T02:45:50.894Z,95.4
2017-02-08T02:46:55.045Z,95.21
2017-02-08T02:48:01.132Z,95.5
2017-02-08T02:49:06.251Z,95.88
2017-02-08T02:50:11.370Z,95.69
2017-02-08T02:51:16.484Z,95.4
2017-02-08T02:52:21.664Z,95.31
2017-02-08T02:53:26.809Z,95.59
2017-02-08T02:54:32.872Z,95.21
2017-02-08T02:55:38.972Z,95.5
2017-02-08T02:56:44.070Z,95.4
2017-02-08T02:57:49.178Z,95.4
2017-02-08T02:58:55.268Z,94.93
2017-02-08T03:00:01.362Z,95.4
2017-02-08T03:01:06.488Z,95.4
2017-02-08T03:02:09.691Z,95.31
2017-02-08T03:03:14.799Z,95.03
2017-02-08T03:04:19.889Z,95.21
2017-02-08T03:05:25.085Z,95.12
2017-02-08T03:06:30.234Z,94.93
2017-02-08T03:07:36.335Z,95.21
2017-02-08T03:08:41.451Z,95.12
2017-02-08T03:09:46.564Z,94.84
2017-02-08T03:10:51.692Z,95.21
2017-02-08T03:11:57.783Z,95.12
2017-02-08T03:13:03.874Z,95.31
2017-02-08T03:14:08.999Z,95.12
2017-02-08T03:15:15.088Z,94.93
2017-02-08T03:16:20.207Z,94.93
2017-02-08T03:17:26.302Z,95.03
2017-02-08T03:18:32.393Z,95.4
2017-02-08T03:19:38.473Z,95.4
2017-02-08T03:20:44.577Z,95.31
2017-02-08T03:21:50.660Z,95.31
2017-02-08T03:22:56.770Z,95.31
2017-02-08T03:24:01.865Z,95.21
2017-02-08T03:25:06.983Z,95.12
2017-02-08T03:26:13.072Z,94.93
2017-02-08T03:27:18.277Z,95.21
2017-02-08T03:28:24.368Z,95.21
2017-02-08T03:29:29.487Z,95.31
2017-02-08T03:30:33.665Z,95.31
2017-02-08T03:31:38.738Z,95.21
2017-02-08T03:32:41.922Z,95.03
2017-02-08T03:33:48.011Z,95.4
2017-02-08T03:34:54.098Z,95.5
2017-02-08T03:35:59.221Z,95.4
2017-02-08T03:37:04.340Z,95.31
2017-02-08T03:38:09.457Z,95.21
2017-02-08T03:39:14.583Z,95.03
2017-02-08T03:40:19.708Z,95.21
2017-02-08T03:41:23.891Z,95.03
2017-02-08T03:42:28.985Z,95.03
2017-02-08T03:43:35.076Z,95.21
2017-02-08T03:44:40.203Z,95.21
2017-02-08T03:45:46.296Z,95.4
2017-02-08T03:46:51.410Z,95.21
2017-02-08T03:47:56.596Z,95.59
2017-02-08T03:49:02.682Z,95.59
2017-02-08T03:50:07.814Z,95.4
2017-02-08T03:51:12.941Z,95.31
2017-02-08T03:52:18.061Z,95.78
2017-02-08T03:53:23.204Z,96.16
2017-02-08T03:54:29.286Z,96.16
2017-02-08T03:55:32.448Z,95.69
2017-02-08T03:56:37.565Z,95.69
2017-02-08T03:57:41.694Z,95.03
2017-02-08T03:58:47.806Z,95.31
2017-02-08T03:59:52.929Z,95.69
2017-02-08T04:00:59.020Z,95.78
2017-02-08T04:02:04.152Z,95.4
2017-02-08T04:03:10.249Z,95.21
2017-02-08T04:04:13.433Z,95.31
2017-02-08T04:05:18.544Z,95.31
2017-02-08T04:06:24.631Z,95.4
2017-02-08T04:07:30.730Z,94.65
2017-02-08T04:08:36.808Z,94.74
2017-02-08T04:09:42.915Z,95.12
2017-02-08T04:10:48.013Z,94.84
2017-02-08T04:11:54.113Z,95.4
2017-02-08T04:13:00.203Z,95.4
2017-02-08T04:14:04.366Z,95.31
2017-02-08T04:15:10.502Z,95.03
2017-02-08T04:16:16.584Z,94.93
2017-02-08T04:17:22.671Z,94.93
2017-02-08T04:18:27.773Z,95.21
2017-02-08T04:19:33.872Z,95.12
2017-02-08T04:20:39.987Z,95.03
2017-02-08T04:21:46.083Z,95.21
2017-02-08T04:22:51.202Z,94.93
2017-02-08T04:23:57.291Z,95.59
2017-02-08T04:25:02.407Z,95.59
2017-02-08T04:26:08.484Z,95.12
2017-02-08T04:27:14.582Z,95.03
2017-02-08T04:28:19.780Z,95.12
2017-02-08T04:29:25.877Z,95.31
2017-02-08T04:30:30.992Z,95.21
2017-02-08T04:31:37.079Z,95.21
2017-02-08T04:32:43.181Z,95.21
2017-02-08T04:33:49.270Z,95.03
2017-02-08T04:34:55.356Z,94.93
2017-02-08T04:35:59.476Z,94.93
2017-02-08T04:37:05.569Z,95.03
2017-02-08T04:38:11.678Z,95.21
2017-02-08T04:39:17.769Z,95.03
2017-02-08T04:40:23.858Z,95.5
2017-02-08T04:41:29.940Z,95.21
2017-02-08T04:42:36.040Z,95.03
2017-02-08T04:43:42.137Z,94.84
2017-02-08T04:44:47.362Z,95.21
2017-02-08T04:45:52.488Z,94.93
2017-02-08T04:46:58.583Z,95.21
2017-02-08T04:48:03.695Z,94.93
2017-02-08T04:49:08.824Z,95.03
2017-02-08T04:50:14.916Z,94.93
2017-02-08T04:51:21.004Z,95.21
2017-02-08T04:52:26.133Z,95.5
2017-02-08T04:53:32.230Z,95.21
2017-02-08T04:54:38.323Z,95.4
2017-02-08T04:55:43.450Z,95.21
2017-02-08T04:56:48.569Z,95.03
2017-02-08T04:57:51.730Z,95.5
2017-02-08T04:58:56.844Z,95.4
2017-02-08T05:00:01.967Z,95.31
2017-02-08T05:01:08.059Z,95.5
2017-02-08T05:02:12.218Z,95.59
2017-02-08T05:03:18.317Z,95.5
2017-02-08T05:04:24.412Z,95.4
2017-02-08T05:05:30.500Z,95.4
2017-02-08T05:06:36.590Z,95.12
2017-02-08T05:07:42.706Z,95.5
2017-02-08T05:08:48.817Z,95.31
2017-02-08T05:09:53.910Z,95.4
2017-02-08T05:11:00.013Z,95.21
2017-02-08T05:12:04.167Z,95.5
2017-02-08T05:13:09.303Z,95.4
2017-02-08T05:14:15.401Z,95.59
2017-02-08T05:15:20.480Z,95.5
2017-02-08T05:16:26.619Z,95.5
2017-02-08T05:17:32.713Z,95.21
2017-02-08T05:18:38.795Z,95.03
2017-02-08T05:19:44.887Z,95.21
2017-02-08T05:20:51.032Z,94.93
2017-02-08T05:21:54.193Z,95.21
2017-02-08T05:23:00.289Z,95.31
2017-02-08T05:24:05.415Z,95.5
2017-02-08T05:25:10.541Z,95.59
2017-02-08T05:26:16.640Z,95.5
2017-02-08T05:27:22.726Z,95.5
2017-02-08T05:28:28.813Z,95.31
2017-02-08T05:29:34.978Z,95.31
2017-02-08T05:30:41.082Z,95.31
2017-02-08T05:31:47.157Z,95.5
2017-02-08T05:32:53.257Z,95.4
2017-02-08T05:33:59.343Z,95.31
2017-02-08T05:35:05.436Z,95.5
2017-02-08T05:36:10.566Z,95.59
2017-02-08T05:37:16.649Z,95.4
2017-02-08T05:38:22.749Z,95.5
2017-02-08T05:39:28.872Z,95.69
2017-02-08T05:40:33.026Z,95.31
2017-02-08T05:41:38.130Z,95.59
2017-02-08T05:42:44.246Z,95.59
2017-02-08T05:43:50.329Z,95.21
2017-02-08T05:44:56.412Z,95.69
2017-02-08T05:46:02.502Z,95.5
2017-02-08T05:47:08.600Z,95.4
2017-02-08T05:48:13.758Z,95.4
2017-02-08T05:49:17.871Z,95.4
2017-02-08T05:50:23.989Z,95.59
2017-02-08T05:51:30.077Z,95.31
2017-02-08T05:52:36.172Z,95.59
2017-02-08T05:53:42.261Z,95.21
2017-02-08T05:54:48.399Z,95.03
2017-02-08T05:55:54.491Z,94.93
2017-02-08T05:57:00.603Z,95.21
2017-02-08T05:58:05.702Z,95.21
2017-02-08T05:59:09.833Z,95.4
2017-02-08T06:00:13.990Z,95.31
2017-02-08T06:01:20.071Z,95.12
2017-02-08T06:02:26.153Z,95.12
2017-02-08T06:03:32.258Z,95.03
2017-02-08T06:04:38.350Z,94.93
2017-02-08T06:05:44.440Z,95.5
2017-02-08T06:06:50.529Z,95.21
2017-02-08T06:07:56.634Z,95.5
2017-02-08T06:09:01.750Z,95.31
2017-02-08T06:10:05.909Z,95.59
2017-02-08T06:11:11.993Z,95.21
2017-02-08T06:12:18.089Z,95.12
2017-02-08T06:13:24.255Z,95.03
2017-02-08T06:14:29.395Z,95.31
2017-02-08T06:15:35.477Z,95.21
2017-02-08T06:16:40.611Z,94.84
2017-02-08T06:17:46.703Z,95.12
2017-02-08T06:18:51.802Z,95.4
2017-02-08T06:19:57.885Z,95.31
2017-02-08T06:21:03.008Z,95.21
2017-02-08T06:22:07.166Z,95.12
2017-02-08T06:23:13.265Z,95.59
2017-02-08T06:24:19.354Z,95.59
2017-02-08T06:25:24.477Z,95.21
2017-02-08T06:26:30.574Z,95.12
2017-02-08T06:27:36.664Z,95.12
2017-02-08T06:28:41.780Z,95.69
2017-02-08T06:29:47.887Z,95.69
2017-02-08T06:30:55.691Z,95.12
2017-02-08T06:31:59.110Z,95.59
2017-02-08T06:33:03.274Z,95.12
2017-02-08T06:34:08.375Z,95.4
2017-02-08T06:35:14.465Z,95.69
2017-02-08T06:36:20.578Z,95.59
2017-02-08T06:37:25.676Z,95.59
2017-02-08T06:38:30.772Z,95.59
2017-02-08T06:39:35.898Z,95.12
2017-02-08T06:40:41.986Z,95.59
2017-02-08T06:41:48.077Z,95.4
2017-02-08T06:42:54.272Z,95.21
2017-02-08T06:44:00.352Z,95.69
2017-02-08T06:45:05.478Z,95.5
2017-02-08T06:46:10.603Z,95.21
2017-02-08T06:47:16.691Z,95.31
2017-02-08T06:48:21.810Z,95.5
2017-02-08T06:49:27.912Z,95.5
2017-02-08T06:50:33.038Z,95.12
2017-02-08T06:51:39.126Z,95.21
2017-02-08T06:52:45.222Z,95.21
2017-02-08T06:53:51.326Z,95.07
2017-02-08T06:54:56.429Z,95.21
2017-02-08T06:56:01.586Z,95.31
2017-02-08T06:57:07.648Z,95.31
2017-02-08T06:58:12.775Z,95.21
2017-02-08T06:59:18.858Z,95.21
2017-02-08T07:00:24.964Z,95.31
2017-02-08T07:01:29.099Z,95.4
2017-02-08T07:02:35.188Z,95.12
2017-02-08T07:03:40.316Z,95.12
2017-02-08T07:04:46.405Z,95.21
2017-02-08T07:05:51.543Z,95.31
2017-02-08T07:06:56.672Z,95.03
2017-02-08T07:08:02.790Z,95.21
2017-02-08T07:09:08.878Z,95.21
2017-02-08T07:10:14.988Z,95.12
2017-02-08T07:11:21.159Z,95.12
2017-02-08T07:12:26.283Z,95.03
2017-02-08T07:13:31.402Z,95.4
2017-02-08T07:14:37.489Z,95.12
2017-02-08T07:15:43.574Z,95.12
2017-02-08T07:16:48.694Z,94.93
2017-02-08T07:17:54.792Z,94.93
2017-02-08T07:19:00.896Z,95.21
2017-02-08T07:20:06.981Z,95.31
2017-02-08T07:21:13.083Z,95.4
2017-02-08T07:22:19.182Z,95.12
2017-02-08T07:23:25.278Z,95.31
2017-02-08T07:24:30.397Z,94.65
2017-02-08T07:25:35.527Z,94.84
2017-02-08T07:26:40.652Z,94.93
2017-02-08T07:27:46.750Z,94.93
2017-02-08T07:28:50.881Z,94.93
2017-02-08T07:29:56.994Z,95.12
2017-02-08T07:31:03.088Z,94.84
2017-02-08T07:32:09.180Z,95.31
2017-02-08T07:33:15.304Z,94.93
2017-02-08T07:34:21.371Z,94.93
2017-02-08T07:35:27.465Z,95.03
2017-02-08T07:36:33.555Z,94.84
2017-02-08T07:37:39.647Z,94.93
2017-02-08T07:38:44.778Z,94.93
2017-02-08T07:39:50.862Z,94.56
2017-02-08T07:40:56.951Z,94.46
2017-02-08T07:42:02.078Z,94.56
2017-02-08T07:43:07.205Z,94.37
2017-02-08T07:44:13.296Z,94.74
2017-02-08T07:45:18.409Z,94.08
2017-02-08T07:46:24.503Z,94.08
2017-02-08T07:47:29.621Z,94.18
2017-02-08T07:48:34.714Z,93.99
2017-02-08T07:49:39.942Z,94.18
2017-02-08T07:50:46.031Z,93.99
2017-02-08T07:51:52.117Z,94.18
2017-02-08T07:52:57.215Z,94.65
2017-02-08T07:54:02.348Z,94.74
2017-02-08T07:55:07.476Z,93.99
2017-02-08T07:56:12.589Z,94.08
2017-02-08T07:57:18.687Z,94.27
2017-02-08T07:58:23.805Z,93.99
2017-02-08T07:59:28.932Z,94.37
2017-02-08T08:00:34.054Z,93.89
2017-02-08T08:01:40.167Z,94.18
2017-02-08T08:02:46.238Z,93.7
2017-02-08T08:03:51.359Z,93.99
2017-02-08T08:04:57.450Z,94.18
2017-02-08T08:06:03.546Z,94.37
2017-02-08T08:07:08.639Z,93.89
2017-02-08T08:08:14.728Z,93.89
2017-02-08T08:09:20.806Z,94.08
2017-02-08T08:10:26.895Z,93.51
2017-02-08T08:11:32.080Z,93.8
2017-02-08T08:12:38.170Z,93.99
2017-02-08T08:13:44.269Z,93.89
2017-02-08T08:14:50.364Z,94.08
2017-02-08T08:15:55.455Z,94.08
2017-02-08T08:17:01.722Z,94.08
2017-02-08T08:19:13.913Z,94.27
2017-02-08T08:20:19.047Z,94.08
2017-02-08T08:21:24.174Z,93.61
2017-02-08T08:22:29.311Z,93.99
2017-02-08T08:23:35.400Z,93.7
2017-02-08T08:24:41.496Z,93.61
2017-02-08T08:25:47.581Z,93.61
2017-02-08T08:26:53.751Z,93.04
2017-02-08T08:27:59.839Z,93.04
2017-02-08T08:29:05.941Z,92.94
2017-02-08T08:30:12.025Z,93.23
2017-02-08T08:31:18.225Z,93.04
2017-02-08T08:32:23.341Z,93.13
2017-02-08T08:33:29.430Z,93.13
2017-02-08T08:34:35.519Z,93.13
2017-02-08T08:35:41.708Z,93.23
2017-02-08T08:36:47.775Z,93.13
2017-02-08T08:37:53.863Z,92.85
2017-02-08T08:38:59.948Z,92.85
2017-02-08T08:40:05.070Z,93.13
2017-02-08T08:41:11.160Z,93.04
2017-02-08T08:42:16.278Z,93.13
2017-02-08T08:43:21.404Z,92.66
2017-02-08T08:44:27.566Z,92.94
2017-02-08T08:45:33.654Z,92.85
2017-02-08T08:46:39.768Z,92.66
2017-02-08T08:47:45.865Z,92.47
2017-02-08T08:48:50.027Z,92.38
2017-02-08T08:49:55.176Z,92.66
2017-02-08T08:51:01.245Z,92.94
2017-02-08T08:52:07.331Z,92.57
2017-02-08T08:53:12.459Z,93.04
2017-02-08T08:54:17.594Z,92.94
2017-02-08T08:55:23.671Z,92.66
2017-02-08T08:56:29.753Z,92.38
2017-02-08T08:57:34.885Z,92.38
2017-02-08T08:58:40.981Z,92.57
2017-02-08T08:59:47.072Z,92.38
2017-02-08T09:00:53.171Z,92.76
2017-02-08T09:01:59.254Z,92.66
2017-02-08T09:03:05.349Z,92.1
2017-02-08T09:04:09.495Z,92.19
2017-02-08T09:05:15.583Z,92.19
2017-02-08T09:06:20.702Z,92.38
2017-02-08T09:07:25.790Z,91.91
2017-02-08T09:08:30.935Z,92.61
2017-02-08T09:09:37.026Z,92.43
2017-02-08T09:10:43.124Z,92.38
2017-02-08T09:11:47.244Z,92.57
2017-02-08T09:12:52.346Z,92.43
2017-02-08T09:13:58.446Z,92.1
2017-02-08T09:15:04.567Z,92.29
2017-02-08T09:16:10.642Z,92
2017-02-08T09:17:16.785Z,92
2017-02-08T09:18:21.959Z,92.47
2017-02-08T09:19:27.057Z,92.29
2017-02-08T09:20:32.180Z,92.1
2017-02-08T09:21:37.305Z,91.91
2017-02-08T09:22:43.400Z,92.1
2017-02-08T09:23:48.529Z,92.05
2017-02-08T09:24:54.623Z,92.05
2017-02-08T09:25:58.793Z,91.48
2017-02-08T09:27:04.944Z,91.24
2017-02-08T09:28:11.036Z,91.2
2017-02-08T09:29:17.124Z,91.29
2017-02-08T09:30:23.213Z,91.01
2017-02-08T09:31:29.306Z,91.2
2017-02-08T09:32:35.399Z,91.01
2017-02-08T09:33:41.492Z,91.29
2017-02-08T09:34:46.619Z,90.34
2017-02-08T09:35:52.716Z,90.63
2017-02-08T09:36:58.806Z,90.3
2017-02-08T09:38:04.900Z,90.53
2017-02-08T09:39:10.993Z,90.68
2017-02-08T09:40:17.086Z,91.01
2017-02-08T09:41:23.239Z,91.34
2017-02-08T09:42:29.327Z,91.2
2017-02-08T09:43:35.431Z,91.2
2017-02-08T09:44:41.528Z,91.29
2017-02-08T09:45:47.614Z,91.1
2017-02-08T09:46:53.704Z,90.63
2017-02-08T09:47:58.831Z,90.34
2017-02-08T09:49:03.949Z,90.16
2017-02-08T09:50:09.076Z,90.34
2017-02-08T09:51:14.200Z,90.25
2017-02-08T09:52:20.301Z,89.97
2017-02-08T09:53:26.404Z,90.06
2017-02-08T09:54:31.526Z,90.16
2017-02-08T09:55:36.636Z,90.53
2017-02-08T09:56:41.754Z,90.34
2017-02-08T09:57:46.877Z,90.34
2017-02-08T09:58:52.964Z,89.31
2017-02-08T09:59:59.053Z,89.31
2017-02-08T10:01:04.243Z,89.02
2017-02-08T10:02:10.342Z,89.21
2017-02-08T10:03:15.460Z,89.02
2017-02-08T10:04:20.578Z,89.4
2017-02-08T10:05:26.666Z,88.83
2017-02-08T10:06:32.761Z,88.74
2017-02-08T10:07:37.893Z,88.83
2017-02-08T10:08:42.049Z,88.64
2017-02-08T10:09:48.141Z,89.12
2017-02-08T10:10:54.224Z,89.4
2017-02-08T10:12:00.311Z,88.74
2017-02-08T10:13:06.394Z,88.83
2017-02-08T10:14:11.521Z,88.74
2017-02-08T10:15:17.617Z,88.64
2017-02-08T10:16:23.718Z,88.74
2017-02-08T10:17:29.814Z,88.83
2017-02-08T10:18:34.905Z,89.21
2017-02-08T10:19:41.026Z,89.31
2017-02-08T10:20:47.116Z,88.83
2017-02-08T10:21:53.209Z,87.79
2017-02-08T10:22:59.308Z,87.88
2017-02-08T10:24:04.492Z,88.55
2017-02-08T10:25:10.583Z,87.13
2017-02-08T10:26:16.687Z,86.94
2017-02-08T10:27:22.770Z,87.41
2017-02-08T10:28:26.931Z,87.79
2017-02-08T10:29:33.018Z,87.88
2017-02-08T10:30:38.153Z,87.51
2017-02-08T10:31:44.245Z,87.6
2017-02-08T10:32:50.331Z,87.23
2017-02-08T10:33:56.423Z,87.04
2017-02-08T10:35:02.520Z,86.85
2017-02-08T10:36:07.607Z,86.94
2017-02-08T10:37:13.699Z,87.23
2017-02-08T10:38:19.827Z,87.41
2017-02-08T10:39:24.947Z,87.23
2017-02-08T10:40:31.025Z,86.98
2017-02-08T10:41:37.158Z,87.65
2017-02-08T10:42:42.254Z,87.65
2017-02-08T10:43:46.407Z,87.17
2017-02-08T10:44:52.513Z,86.89
2017-02-08T10:45:58.606Z,86.22
2017-02-08T10:47:03.750Z,86.22
2017-02-08T10:48:08.852Z,85.94
2017-02-08T10:49:14.942Z,85.75
2017-02-08T10:50:21.062Z,85.66
2017-02-08T10:51:26.197Z,85.57
2017-02-08T10:52:32.296Z,84.81
2017-02-08T10:53:38.393Z,84.42
2017-02-08T10:54:44.480Z,84.81
2017-02-08T10:55:50.564Z,84.42
2017-02-08T10:56:56.656Z,84.61
2017-02-08T10:58:01.791Z,84.14
2017-02-08T10:59:06.910Z,84.23
2017-02-08T11:00:09.139Z,85
2017-02-08T11:01:15.228Z,84.9
2017-02-08T11:02:21.325Z,84.71
2017-02-08T11:03:27.418Z,84.52
2017-02-08T11:04:33.518Z,84.71
2017-02-08T11:05:39.605Z,83.58
2017-02-08T11:06:45.725Z,83.24
2017-02-08T11:07:50.873Z,82.95
2017-02-08T11:08:55.995Z,82.86
2017-02-08T11:10:01.120Z,83.33
2017-02-08T11:11:07.201Z,82.67
2017-02-08T11:12:13.302Z,82.86
2017-02-08T11:13:18.440Z,82.86
2017-02-08T11:14:24.520Z,82.76
2017-02-08T11:15:30.625Z,81.34
2017-02-08T11:16:36.723Z,81.34
2017-02-08T11:17:40.875Z,81.92
2017-02-08T11:18:46.981Z,82.01
2017-02-08T11:19:53.078Z,80.96
2017-02-08T11:20:58.181Z,79.74
2017-02-08T11:22:04.286Z,79.39
2017-02-08T11:23:09.415Z,79.58
2017-02-08T11:24:14.548Z,79.87
2017-02-08T11:25:19.649Z,79.77
2017-02-08T11:26:25.749Z,80.15
2017-02-08T11:27:31.841Z,79.36
2017-02-08T11:28:37.931Z,79.36
2017-02-08T11:29:44.034Z,80.11
2017-02-08T11:30:50.144Z,80.02
2017-02-08T11:31:56.207Z,80.11
2017-02-08T11:33:01.338Z,79.74
2017-02-08T11:34:07.432Z,79.21
2017-02-08T11:35:12.542Z,79.96
2017-02-08T11:36:18.640Z,79.87
2017-02-08T11:37:24.734Z,79.39
2017-02-08T11:38:28.877Z,78.92
2017-02-08T11:39:34.971Z,78.92
2017-02-08T11:40:38.159Z,78.64
2017-02-08T11:41:43.289Z,78.54
2017-02-08T11:42:49.400Z,78.83
2017-02-08T11:43:54.523Z,78.35
2017-02-08T11:44:59.647Z,78.64
2017-02-08T11:46:05.741Z,79.77
2017-02-08T11:47:10.897Z,80.15
2017-02-08T11:48:16.011Z,80.06
2017-02-08T11:49:21.119Z,78.92
2017-02-08T11:50:27.216Z,78.35
2017-02-08T11:51:32.342Z,77.88
2017-02-08T11:52:37.489Z,77.97
2017-02-08T11:53:42.596Z,79.07
2017-02-08T11:54:47.728Z,79.17
2017-02-08T11:55:53.820Z,80.11
2017-02-08T11:56:58.943Z,79.45
2017-02-08T11:58:05.031Z,78.98
2017-02-08T11:59:10.121Z,79.17
2017-02-08T12:00:15.312Z,79.36
2017-02-08T12:01:21.410Z,79.83
2017-02-08T12:02:26.542Z,80.11
2017-02-08T12:03:32.682Z,80.02
2017-02-08T12:04:38.737Z,80.21
2017-02-08T12:05:44.836Z,80.02
2017-02-08T12:06:49.965Z,80.3
2017-02-08T12:07:56.065Z,79.83
2017-02-08T12:09:01.193Z,80.02
2017-02-08T12:10:05.361Z,80.4
2017-02-08T12:11:10.484Z,80.02
2017-02-08T12:12:16.575Z,80.58
2017-02-08T12:13:22.668Z,80.68
2017-02-08T12:14:28.759Z,79.93
2017-02-08T12:15:34.858Z,79.26
2017-02-08T12:16:39.998Z,79.83
2017-02-08T12:17:46.091Z,79.74
2017-02-08T12:18:50.239Z,80.21
2017-02-08T12:19:56.331Z,80.4
2017-02-08T12:21:01.451Z,80.3
2017-02-08T12:22:07.543Z,80.3
2017-02-08T12:23:13.644Z,80.4
2017-02-08T12:24:19.748Z,80.02
2017-02-08T12:25:24.873Z,80.4
2017-02-08T12:26:29.998Z,80.83
2017-02-08T12:27:35.130Z,80.68
2017-02-08T12:28:40.266Z,81.53
2017-02-08T12:29:45.397Z,80.87
2017-02-08T12:30:48.663Z,80.21
2017-02-08T12:31:54.735Z,80.21
2017-02-08T12:32:59.857Z,79.64
2017-02-08T12:34:05.932Z,80.21
2017-02-08T12:35:11.186Z,80.68
2017-02-08T12:36:17.316Z,80.3
2017-02-08T12:37:23.432Z,80.77
2017-02-08T12:38:28.556Z,79.55
2017-02-08T12:39:34.655Z,80.02
2017-02-08T12:40:40.742Z,79.74
2017-02-08T12:41:46.822Z,78.88
2017-02-08T12:42:51.942Z,79.07
2017-02-08T12:43:57.084Z,79.74
2017-02-08T12:45:03.171Z,79.83
2017-02-08T12:46:09.265Z,79.26
2017-02-08T12:47:14.389Z,79.32
2017-02-08T12:48:18.550Z,79.69
2017-02-08T12:49:24.638Z,80.07
2017-02-08T12:50:29.763Z,80.68
2017-02-08T12:51:35.872Z,80.21
2017-02-08T12:52:41.955Z,79.83
2017-02-08T12:53:47.060Z,80.49
2017-02-08T12:54:53.151Z,80.49
2017-02-08T12:55:58.249Z,80.58
2017-02-08T12:57:03.372Z,80.3
2017-02-08T12:58:09.504Z,80.4
2017-02-08T12:59:15.598Z,80.4
2017-02-08T13:00:21.701Z,80.68
2017-02-08T13:01:27.789Z,79.45
2017-02-08T13:02:33.888Z,80.17
2017-02-08T13:03:39.983Z,80.21
2017-02-08T13:04:45.112Z,79.74
2017-02-08T13:05:50.216Z,79.5
2017-02-08T13:06:56.323Z,79.64
2017-02-08T13:08:02.399Z,80.4
2017-02-08T13:09:08.500Z,80.68
2017-02-08T13:10:13.643Z,80.58
2017-02-08T13:11:18.777Z,79.17
2017-02-08T13:12:23.879Z,79.93
2017-02-08T13:13:29.959Z,80.4
2017-02-08T13:14:36.054Z,79.07
2017-02-08T13:15:42.155Z,79.07
2017-02-08T13:16:47.284Z,78.79
2017-02-08T13:17:52.411Z,78.69
2017-02-08T13:18:58.513Z,78.98
2017-02-08T13:20:04.605Z,78.5
2017-02-08T13:21:10.698Z,79.17
2017-02-08T13:22:16.792Z,79.64
2017-02-08T13:23:21.889Z,79.55
2017-02-08T13:24:27.979Z,79.45
2017-02-08T13:25:34.097Z,79.17
2017-02-08T13:26:40.184Z,79.17
2017-02-08T13:27:46.282Z,79.36
2017-02-08T13:28:52.378Z,80.02
2017-02-08T13:29:58.480Z,79.17
2017-02-08T13:31:03.575Z,78.88
2017-02-08T13:32:09.665Z,80.4
2017-02-08T13:33:15.761Z,79.64
2017-02-08T13:34:20.888Z,80.4
2017-02-08T13:35:26.018Z,80.4
2017-02-08T13:36:31.151Z,78.69
2017-02-08T13:37:37.269Z,78.88
2017-02-08T13:38:43.377Z,79.26
2017-02-08T13:39:49.469Z,79.64
2017-02-08T13:40:55.560Z,80.4
2017-02-08T13:42:01.667Z,80.21
2017-02-08T13:43:06.803Z,78.88
2017-02-08T13:44:11.927Z,79.55
2017-02-08T13:45:17.055Z,79.07
2017-02-08T13:46:22.178Z,78.88
2017-02-08T13:47:28.305Z,79.07
2017-02-08T13:48:34.423Z,78.88
2017-02-08T13:49:39.524Z,80.21
2017-02-08T13:50:45.623Z,79.03
2017-02-08T13:51:50.746Z,79.6
2017-02-08T13:52:56.837Z,80.07
2017-02-08T13:54:02.933Z,79.69
2017-02-08T13:55:08.055Z,80.17
2017-02-08T13:56:13.179Z,79.64
2017-02-08T13:57:18.301Z,79.98
2017-02-08T13:58:23.442Z,80.07
2017-02-08T13:59:29.602Z,79.98
2017-02-08T14:00:35.691Z,80.55
2017-02-08T14:01:40.835Z,80.74
2017-02-08T14:02:45.971Z,80.74
2017-02-08T14:03:51.059Z,80.93
2017-02-08T14:04:57.155Z,80.93
2017-02-08T14:06:02.284Z,81.02
2017-02-08T14:07:08.386Z,80.83
2017-02-08T14:08:14.492Z,80.93
2017-02-08T14:09:20.647Z,79.98
2017-02-08T14:10:26.750Z,79.88